sensor_id;sensor_type;location;lat;lon;timestamp;P1;durP1;ratioP1;P2;durP2;ratioP2
74620;SDS011;64861;47.546;19.254;2023-05-07T00:01:26;7.25;;;4.20;;
74620;SDS011;64861;47.546;19.254;2023-05-07T00:03:51;8.18;;;4.70;;
74620;SDS011;64861;47.546;19.254;2023-05-07T00:06:17;6.45;;;4.05;;
74620;SDS011;64861;47.546;19.254;2023-05-07T00:08:42;8.07;;;4.25;;
74620;SDS011;64861;47.546;19.254;2023-05-07T00:11:07;10.10;;;4.18;;
74620;SDS011;64861;47.546;19.254;2023-05-07T00:13:33;6.68;;;3.90;;
74620;SDS011;64861;47.546;19.254;2023-05-07T00:16:03;7.28;;;4.03;;
74620;SDS011;64861;47.546;19.254;2023-05-07T00:18:29;8.07;;;4.80;;
74620;SDS011;64861;47.546;19.254;2023-05-07T00:20:54;7.82;;;4.80;;
74620;SDS011;64861;47.546;19.254;2023-05-07T00:23:21;5.72;;;3.78;;
74620;SDS011;64861;47.546;19.254;2023-05-07T00:25:46;7.68;;;4.32;;
74620;SDS011;64861;47.546;19.254;2023-05-07T00:28:12;7.22;;;4.30;;
74620;SDS011;64861;47.546;19.254;2023-05-07T00:30:37;7.80;;;4.10;;
74620;SDS011;64861;47.546;19.254;2023-05-07T00:33:03;6.97;;;4.47;;
74620;SDS011;64861;47.546;19.254;2023-05-07T00:35:28;7.18;;;4.38;;
74620;SDS011;64861;47.546;19.254;2023-05-07T00:37:55;7.45;;;4.55;;
74620;SDS011;64861;47.546;19.254;2023-05-07T00:40:20;8.13;;;4.10;;
74620;SDS011;64861;47.546;19.254;2023-05-07T00:42:46;6.93;;;4.22;;
74620;SDS011;64861;47.546;19.254;2023-05-07T00:45:20;6.03;;;3.92;;
74620;SDS011;64861;47.546;19.254;2023-05-07T00:47:46;7.22;;;4.60;;
74620;SDS011;64861;47.546;19.254;2023-05-07T00:50:11;7.15;;;4.45;;
74620;SDS011;64861;47.546;19.254;2023-05-07T00:52:38;6.97;;;4.13;;
74620;SDS011;64861;47.546;19.254;2023-05-07T00:55:04;7.15;;;4.43;;
74620;SDS011;64861;47.546;19.254;2023-05-07T00:57:37;6.60;;;4.53;;
74620;SDS011;64861;47.546;19.254;2023-05-07T01:00:05;6.95;;;4.38;;
74620;SDS011;64861;47.546;19.254;2023-05-07T01:02:32;7.15;;;4.70;;
74620;SDS011;64861;47.546;19.254;2023-05-07T01:04:58;7.38;;;4.70;;
74620;SDS011;64861;47.546;19.254;2023-05-07T01:07:25;7.55;;;4.68;;
74620;SDS011;64861;47.546;19.254;2023-05-07T01:09:52;6.80;;;4.45;;
74620;SDS011;64861;47.546;19.254;2023-05-07T01:12:18;7.82;;;4.57;;
74620;SDS011;64861;47.546;19.254;2023-05-07T01:14:44;6.68;;;4.10;;
74620;SDS011;64861;47.546;19.254;2023-05-07T01:17:10;7.72;;;4.40;;
74620;SDS011;64861;47.546;19.254;2023-05-07T01:19:35;6.65;;;4.50;;
74620;SDS011;64861;47.546;19.254;2023-05-07T01:22:03;6.72;;;4.13;;
74620;SDS011;64861;47.546;19.254;2023-05-07T01:24:32;7.65;;;4.38;;
74620;SDS011;64861;47.546;19.254;2023-05-07T01:26:58;6.78;;;4.18;;
74620;SDS011;64861;47.546;19.254;2023-05-07T01:29:23;7.05;;;4.55;;
74620;SDS011;64861;47.546;19.254;2023-05-07T01:31:49;6.57;;;4.07;;
74620;SDS011;64861;47.546;19.254;2023-05-07T01:34:16;7.55;;;5.10;;
74620;SDS011;64861;47.546;19.254;2023-05-07T01:36:43;7.32;;;4.45;;
74620;SDS011;64861;47.546;19.254;2023-05-07T01:39:10;8.52;;;4.43;;
74620;SDS011;64861;47.546;19.254;2023-05-07T01:41:36;7.07;;;4.32;;
74620;SDS011;64861;47.546;19.254;2023-05-07T01:44:02;7.88;;;4.60;;
74620;SDS011;64861;47.546;19.254;2023-05-07T01:46:29;8.18;;;4.45;;
74620;SDS011;64861;47.546;19.254;2023-05-07T01:48:56;9.07;;;4.47;;
74620;SDS011;64861;47.546;19.254;2023-05-07T01:51:21;7.70;;;4.30;;
74620;SDS011;64861;47.546;19.254;2023-05-07T01:53:47;7.22;;;4.45;;
74620;SDS011;64861;47.546;19.254;2023-05-07T01:56:16;6.35;;;4.15;;
74620;SDS011;64861;47.546;19.254;2023-05-07T01:58:44;7.20;;;4.53;;
74620;SDS011;64861;47.546;19.254;2023-05-07T02:01:13;7.32;;;4.90;;
74620;SDS011;64861;47.546;19.254;2023-05-07T02:03:38;7.40;;;4.72;;
74620;SDS011;64861;47.546;19.254;2023-05-07T02:06:04;7.10;;;4.50;;
74620;SDS011;64861;47.546;19.254;2023-05-07T02:08:30;8.75;;;4.88;;
74620;SDS011;64861;47.546;19.254;2023-05-07T02:10:56;7.78;;;4.63;;
74620;SDS011;64861;47.546;19.254;2023-05-07T02:13:21;7.40;;;4.70;;
74620;SDS011;64861;47.546;19.254;2023-05-07T02:15:47;6.82;;;4.30;;
74620;SDS011;64861;47.546;19.254;2023-05-07T02:18:16;7.05;;;4.50;;
74620;SDS011;64861;47.546;19.254;2023-05-07T02:20:42;7.28;;;4.72;;
74620;SDS011;64861;47.546;19.254;2023-05-07T02:23:08;7.43;;;4.78;;
74620;SDS011;64861;47.546;19.254;2023-05-07T02:25:33;7.18;;;4.35;;
74620;SDS011;64861;47.546;19.254;2023-05-07T02:27:59;7.00;;;4.80;;
74620;SDS011;64861;47.546;19.254;2023-05-07T02:30:24;6.95;;;4.75;;
74620;SDS011;64861;47.546;19.254;2023-05-07T02:32:50;7.43;;;4.88;;
74620;SDS011;64861;47.546;19.254;2023-05-07T02:35:16;7.47;;;4.70;;
74620;SDS011;64861;47.546;19.254;2023-05-07T02:37:41;7.40;;;4.90;;
74620;SDS011;64861;47.546;19.254;2023-05-07T02:40:07;6.45;;;4.28;;
74620;SDS011;64861;47.546;19.254;2023-05-07T02:42:33;7.00;;;4.50;;
74620;SDS011;64861;47.546;19.254;2023-05-07T02:44:59;6.68;;;4.55;;
74620;SDS011;64861;47.546;19.254;2023-05-07T02:47:24;6.85;;;4.20;;
74620;SDS011;64861;47.546;19.254;2023-05-07T02:49:53;7.57;;;4.70;;
74620;SDS011;64861;47.546;19.254;2023-05-07T02:52:19;6.90;;;4.72;;
74620;SDS011;64861;47.546;19.254;2023-05-07T02:54:44;7.32;;;4.78;;
74620;SDS011;64861;47.546;19.254;2023-05-07T02:57:10;7.72;;;4.90;;
74620;SDS011;64861;47.546;19.254;2023-05-07T02:59:35;7.68;;;4.90;;
74620;SDS011;64861;47.546;19.254;2023-05-07T03:02:01;6.38;;;4.30;;
74620;SDS011;64861;47.546;19.254;2023-05-07T03:04:26;7.40;;;4.47;;
74620;SDS011;64861;47.546;19.254;2023-05-07T03:06:52;8.50;;;4.70;;
74620;SDS011;64861;47.546;19.254;2023-05-07T03:09:17;7.03;;;4.90;;
74620;SDS011;64861;47.546;19.254;2023-05-07T03:11:43;8.90;;;5.03;;
74620;SDS011;64861;47.546;19.254;2023-05-07T03:14:08;8.18;;;5.03;;
74620;SDS011;64861;47.546;19.254;2023-05-07T03:16:34;6.38;;;4.55;;
74620;SDS011;64861;47.546;19.254;2023-05-07T03:19:00;9.57;;;5.00;;
74620;SDS011;64861;47.546;19.254;2023-05-07T03:21:26;6.57;;;4.68;;
74620;SDS011;64861;47.546;19.254;2023-05-07T03:23:51;7.57;;;4.97;;
74620;SDS011;64861;47.546;19.254;2023-05-07T03:26:16;6.60;;;4.65;;
74620;SDS011;64861;47.546;19.254;2023-05-07T03:28:42;8.32;;;4.97;;
74620;SDS011;64861;47.546;19.254;2023-05-07T03:31:07;7.35;;;4.85;;
74620;SDS011;64861;47.546;19.254;2023-05-07T03:33:33;8.20;;;4.50;;
74620;SDS011;64861;47.546;19.254;2023-05-07T03:36:00;7.40;;;5.00;;
74620;SDS011;64861;47.546;19.254;2023-05-07T03:38:25;9.05;;;4.90;;
74620;SDS011;64861;47.546;19.254;2023-05-07T03:40:51;6.85;;;4.75;;
74620;SDS011;64861;47.546;19.254;2023-05-07T03:43:16;8.07;;;5.47;;
74620;SDS011;64861;47.546;19.254;2023-05-07T03:45:42;6.82;;;4.88;;
74620;SDS011;64861;47.546;19.254;2023-05-07T03:48:07;7.53;;;5.10;;
74620;SDS011;64861;47.546;19.254;2023-05-07T03:50:33;7.03;;;4.88;;
74620;SDS011;64861;47.546;19.254;2023-05-07T03:52:58;7.30;;;4.85;;
74620;SDS011;64861;47.546;19.254;2023-05-07T03:55:24;6.95;;;4.63;;
74620;SDS011;64861;47.546;19.254;2023-05-07T03:57:50;8.40;;;5.03;;
74620;SDS011;64861;47.546;19.254;2023-05-07T04:00:15;8.20;;;5.00;;
74620;SDS011;64861;47.546;19.254;2023-05-07T04:02:41;7.75;;;5.03;;
74620;SDS011;64861;47.546;19.254;2023-05-07T04:05:06;7.63;;;5.25;;
74620;SDS011;64861;47.546;19.254;2023-05-07T04:07:32;7.72;;;5.13;;
74620;SDS011;64861;47.546;19.254;2023-05-07T04:09:58;7.00;;;5.05;;
74620;SDS011;64861;47.546;19.254;2023-05-07T04:12:23;8.25;;;5.20;;
74620;SDS011;64861;47.546;19.254;2023-05-07T04:14:49;7.88;;;5.05;;
74620;SDS011;64861;47.546;19.254;2023-05-07T04:17:15;7.43;;;5.07;;
74620;SDS011;64861;47.546;19.254;2023-05-07T04:19:40;8.40;;;5.45;;
74620;SDS011;64861;47.546;19.254;2023-05-07T04:22:10;7.78;;;5.18;;
74620;SDS011;64861;47.546;19.254;2023-05-07T04:24:36;6.90;;;4.80;;
74620;SDS011;64861;47.546;19.254;2023-05-07T04:27:01;7.50;;;4.97;;
74620;SDS011;64861;47.546;19.254;2023-05-07T04:29:27;7.10;;;4.97;;
74620;SDS011;64861;47.546;19.254;2023-05-07T04:31:53;6.93;;;4.72;;
74620;SDS011;64861;47.546;19.254;2023-05-07T04:34:20;9.13;;;4.95;;
74620;SDS011;64861;47.546;19.254;2023-05-07T04:36:46;7.35;;;5.07;;
74620;SDS011;64861;47.546;19.254;2023-05-07T04:39:13;7.78;;;4.68;;
74620;SDS011;64861;47.546;19.254;2023-05-07T04:41:38;8.45;;;5.28;;
74620;SDS011;64861;47.546;19.254;2023-05-07T04:44:04;8.73;;;4.90;;
74620;SDS011;64861;47.546;19.254;2023-05-07T04:46:30;10.43;;;4.28;;
74620;SDS011;64861;47.546;19.254;2023-05-07T04:48:55;9.68;;;4.53;;
74620;SDS011;64861;47.546;19.254;2023-05-07T04:51:21;9.07;;;4.70;;
74620;SDS011;64861;47.546;19.254;2023-05-07T04:53:46;8.73;;;4.00;;
74620;SDS011;64861;47.546;19.254;2023-05-07T04:56:12;8.93;;;4.40;;
74620;SDS011;64861;47.546;19.254;2023-05-07T04:58:37;6.43;;;4.20;;
74620;SDS011;64861;47.546;19.254;2023-05-07T05:01:03;6.90;;;4.30;;
74620;SDS011;64861;47.546;19.254;2023-05-07T05:03:28;13.07;;;5.13;;
74620;SDS011;64861;47.546;19.254;2023-05-07T05:05:55;12.63;;;5.82;;
74620;SDS011;64861;47.546;19.254;2023-05-07T05:08:20;13.85;;;6.93;;
74620;SDS011;64861;47.546;19.254;2023-05-07T05:10:45;13.93;;;6.25;;
74620;SDS011;64861;47.546;19.254;2023-05-07T05:13:13;16.40;;;6.13;;
74620;SDS011;64861;47.546;19.254;2023-05-07T05:15:39;12.30;;;5.57;;
74620;SDS011;64861;47.546;19.254;2023-05-07T05:18:04;10.40;;;5.03;;
74620;SDS011;64861;47.546;19.254;2023-05-07T05:20:30;16.23;;;5.13;;
74620;SDS011;64861;47.546;19.254;2023-05-07T05:22:55;9.55;;;4.75;;
74620;SDS011;64861;47.546;19.254;2023-05-07T05:25:21;9.32;;;4.80;;
74620;SDS011;64861;47.546;19.254;2023-05-07T05:27:46;9.18;;;4.57;;
74620;SDS011;64861;47.546;19.254;2023-05-07T05:30:12;10.18;;;4.53;;
74620;SDS011;64861;47.546;19.254;2023-05-07T05:32:38;9.38;;;4.88;;
74620;SDS011;64861;47.546;19.254;2023-05-07T05:35:03;7.30;;;4.13;;
74620;SDS011;64861;47.546;19.254;2023-05-07T05:37:29;10.82;;;4.25;;
74620;SDS011;64861;47.546;19.254;2023-05-07T05:39:55;9.63;;;4.57;;
74620;SDS011;64861;47.546;19.254;2023-05-07T05:42:21;7.78;;;5.03;;
74620;SDS011;64861;47.546;19.254;2023-05-07T05:44:46;12.35;;;4.43;;
74620;SDS011;64861;47.546;19.254;2023-05-07T05:47:12;11.98;;;4.57;;
74620;SDS011;64861;47.546;19.254;2023-05-07T05:49:37;11.45;;;4.80;;
74620;SDS011;64861;47.546;19.254;2023-05-07T05:52:03;12.38;;;5.30;;
74620;SDS011;64861;47.546;19.254;2023-05-07T05:54:28;10.73;;;4.82;;
74620;SDS011;64861;47.546;19.254;2023-05-07T05:56:54;9.07;;;5.10;;
74620;SDS011;64861;47.546;19.254;2023-05-07T05:59:19;8.13;;;4.80;;
74620;SDS011;64861;47.546;19.254;2023-05-07T06:01:45;9.93;;;4.72;;
74620;SDS011;64861;47.546;19.254;2023-05-07T06:04:10;9.70;;;4.75;;
74620;SDS011;64861;47.546;19.254;2023-05-07T06:06:36;8.68;;;4.93;;
74620;SDS011;64861;47.546;19.254;2023-05-07T06:09:01;26.67;;;6.43;;
74620;SDS011;64861;47.546;19.254;2023-05-07T06:11:27;15.38;;;6.60;;
74620;SDS011;64861;47.546;19.254;2023-05-07T06:13:52;12.68;;;6.28;;
74620;SDS011;64861;47.546;19.254;2023-05-07T06:16:18;17.48;;;5.68;;
74620;SDS011;64861;47.546;19.254;2023-05-07T06:18:44;14.88;;;5.90;;
74620;SDS011;64861;47.546;19.254;2023-05-07T06:21:11;24.25;;;5.70;;
74620;SDS011;64861;47.546;19.254;2023-05-07T06:23:38;22.63;;;5.10;;
74620;SDS011;64861;47.546;19.254;2023-05-07T06:26:05;20.65;;;5.32;;
74620;SDS011;64861;47.546;19.254;2023-05-07T06:28:31;21.10;;;5.15;;
74620;SDS011;64861;47.546;19.254;2023-05-07T06:31:21;20.67;;;5.40;;
74620;SDS011;64861;47.546;19.254;2023-05-07T06:33:46;22.92;;;5.32;;
74620;SDS011;64861;47.546;19.254;2023-05-07T06:36:12;13.63;;;5.20;;
74620;SDS011;64861;47.546;19.254;2023-05-07T06:38:37;14.88;;;5.28;;
74620;SDS011;64861;47.546;19.254;2023-05-07T06:41:03;21.48;;;4.72;;
74620;SDS011;64861;47.546;19.254;2023-05-07T06:43:28;16.63;;;4.70;;
74620;SDS011;64861;47.546;19.254;2023-05-07T06:45:54;18.17;;;5.55;;
74620;SDS011;64861;47.546;19.254;2023-05-07T06:48:20;22.77;;;4.72;;
74620;SDS011;64861;47.546;19.254;2023-05-07T06:50:45;20.10;;;4.88;;
74620;SDS011;64861;47.546;19.254;2023-05-07T06:53:11;14.75;;;4.43;;
74620;SDS011;64861;47.546;19.254;2023-05-07T06:55:36;16.88;;;4.70;;
74620;SDS011;64861;47.546;19.254;2023-05-07T06:58:03;13.48;;;4.55;;
74620;SDS011;64861;47.546;19.254;2023-05-07T07:00:29;22.52;;;4.80;;
74620;SDS011;64861;47.546;19.254;2023-05-07T07:02:55;18.58;;;4.40;;
74620;SDS011;64861;47.546;19.254;2023-05-07T07:05:20;18.30;;;4.70;;
74620;SDS011;64861;47.546;19.254;2023-05-07T07:07:46;15.57;;;4.55;;
74620;SDS011;64861;47.546;19.254;2023-05-07T07:10:20;16.70;;;4.47;;
74620;SDS011;64861;47.546;19.254;2023-05-07T07:12:47;22.58;;;4.75;;
74620;SDS011;64861;47.546;19.254;2023-05-07T07:15:13;12.60;;;4.20;;
74620;SDS011;64861;47.546;19.254;2023-05-07T07:17:39;13.63;;;4.30;;
74620;SDS011;64861;47.546;19.254;2023-05-07T07:20:05;20.33;;;5.35;;
74620;SDS011;64861;47.546;19.254;2023-05-07T07:22:30;19.27;;;4.70;;
74620;SDS011;64861;47.546;19.254;2023-05-07T07:24:56;21.98;;;4.40;;
74620;SDS011;64861;47.546;19.254;2023-05-07T07:27:21;19.17;;;4.65;;
74620;SDS011;64861;47.546;19.254;2023-05-07T07:29:47;24.73;;;4.47;;
74620;SDS011;64861;47.546;19.254;2023-05-07T07:32:12;20.92;;;5.25;;
74620;SDS011;64861;47.546;19.254;2023-05-07T07:34:38;31.33;;;5.18;;
74620;SDS011;64861;47.546;19.254;2023-05-07T07:37:03;15.40;;;4.00;;
74620;SDS011;64861;47.546;19.254;2023-05-07T07:39:31;16.48;;;4.50;;
74620;SDS011;64861;47.546;19.254;2023-05-07T07:41:57;20.95;;;4.35;;
74620;SDS011;64861;47.546;19.254;2023-05-07T07:44:23;19.55;;;4.68;;
74620;SDS011;64861;47.546;19.254;2023-05-07T07:46:48;17.45;;;4.57;;
74620;SDS011;64861;47.546;19.254;2023-05-07T07:49:14;21.20;;;4.47;;
74620;SDS011;64861;47.546;19.254;2023-05-07T07:51:40;17.02;;;3.85;;
74620;SDS011;64861;47.546;19.254;2023-05-07T07:54:05;15.07;;;4.03;;
74620;SDS011;64861;47.546;19.254;2023-05-07T07:56:31;21.08;;;3.78;;
74620;SDS011;64861;47.546;19.254;2023-05-07T07:58:58;13.45;;;4.03;;
74620;SDS011;64861;47.546;19.254;2023-05-07T08:01:24;16.80;;;4.25;;
74620;SDS011;64861;47.546;19.254;2023-05-07T08:03:49;18.35;;;3.97;;
74620;SDS011;64861;47.546;19.254;2023-05-07T08:06:15;15.57;;;3.95;;
74620;SDS011;64861;47.546;19.254;2023-05-07T08:08:41;10.50;;;3.72;;
74620;SDS011;64861;47.546;19.254;2023-05-07T08:11:06;13.15;;;3.75;;
74620;SDS011;64861;47.546;19.254;2023-05-07T08:13:32;11.23;;;3.75;;
74620;SDS011;64861;47.546;19.254;2023-05-07T08:15:57;11.52;;;4.05;;
74620;SDS011;64861;47.546;19.254;2023-05-07T08:18:22;15.90;;;3.65;;
74620;SDS011;64861;47.546;19.254;2023-05-07T08:20:49;12.10;;;3.83;;
74620;SDS011;64861;47.546;19.254;2023-05-07T08:23:15;12.15;;;3.55;;
74620;SDS011;64861;47.546;19.254;2023-05-07T08:25:41;13.25;;;4.43;;
74620;SDS011;64861;47.546;19.254;2023-05-07T08:28:07;10.73;;;3.92;;
74620;SDS011;64861;47.546;19.254;2023-05-07T08:30:33;15.05;;;4.00;;
74620;SDS011;64861;47.546;19.254;2023-05-07T08:32:59;12.93;;;3.60;;
74620;SDS011;64861;47.546;19.254;2023-05-07T08:35:25;9.50;;;3.83;;
74620;SDS011;64861;47.546;19.254;2023-05-07T08:37:52;9.15;;;3.55;;
74620;SDS011;64861;47.546;19.254;2023-05-07T08:40:17;13.18;;;3.25;;
74620;SDS011;64861;47.546;19.254;2023-05-07T08:42:43;10.73;;;3.67;;
74620;SDS011;64861;47.546;19.254;2023-05-07T08:45:10;13.73;;;4.00;;
74620;SDS011;64861;47.546;19.254;2023-05-07T08:47:41;11.15;;;3.45;;
74620;SDS011;64861;47.546;19.254;2023-05-07T08:50:10;9.52;;;3.00;;
74620;SDS011;64861;47.546;19.254;2023-05-07T08:52:36;12.32;;;3.30;;
74620;SDS011;64861;47.546;19.254;2023-05-07T08:55:02;9.13;;;3.53;;
74620;SDS011;64861;47.546;19.254;2023-05-07T08:57:28;13.50;;;3.60;;
74620;SDS011;64861;47.546;19.254;2023-05-07T08:59:53;10.90;;;3.38;;
74620;SDS011;64861;47.546;19.254;2023-05-07T09:02:19;7.43;;;3.00;;
74620;SDS011;64861;47.546;19.254;2023-05-07T09:04:45;9.95;;;3.38;;
74620;SDS011;64861;47.546;19.254;2023-05-07T09:07:10;9.05;;;3.45;;
74620;SDS011;64861;47.546;19.254;2023-05-07T09:09:36;10.23;;;3.47;;
74620;SDS011;64861;47.546;19.254;2023-05-07T09:12:02;8.02;;;3.30;;
74620;SDS011;64861;47.546;19.254;2023-05-07T09:14:28;10.43;;;3.15;;
74620;SDS011;64861;47.546;19.254;2023-05-07T09:16:56;9.50;;;3.03;;
74620;SDS011;64861;47.546;19.254;2023-05-07T09:19:25;10.80;;;3.35;;
74620;SDS011;64861;47.546;19.254;2023-05-07T09:22:02;6.50;;;2.92;;
74620;SDS011;64861;47.546;19.254;2023-05-07T09:24:28;6.00;;;2.70;;
74620;SDS011;64861;47.546;19.254;2023-05-07T09:26:59;8.05;;;3.38;;
74620;SDS011;64861;47.546;19.254;2023-05-07T09:29:26;9.35;;;3.10;;
74620;SDS011;64861;47.546;19.254;2023-05-07T09:31:53;8.52;;;3.08;;
74620;SDS011;64861;47.546;19.254;2023-05-07T09:34:19;8.75;;;2.90;;
74620;SDS011;64861;47.546;19.254;2023-05-07T09:36:45;7.15;;;3.15;;
74620;SDS011;64861;47.546;19.254;2023-05-07T09:39:10;7.63;;;3.10;;
74620;SDS011;64861;47.546;19.254;2023-05-07T09:41:46;6.10;;;2.63;;
74620;SDS011;64861;47.546;19.254;2023-05-07T09:44:12;7.07;;;2.95;;
74620;SDS011;64861;47.546;19.254;2023-05-07T09:46:39;5.88;;;2.67;;
74620;SDS011;64861;47.546;19.254;2023-05-07T09:49:08;7.13;;;2.90;;
74620;SDS011;64861;47.546;19.254;2023-05-07T09:51:43;6.00;;;2.80;;
74620;SDS011;64861;47.546;19.254;2023-05-07T09:54:13;8.30;;;3.28;;
74620;SDS011;64861;47.546;19.254;2023-05-07T09:56:39;8.18;;;3.03;;
74620;SDS011;64861;47.546;19.254;2023-05-07T09:59:07;8.38;;;2.83;;
74620;SDS011;64861;47.546;19.254;2023-05-07T10:01:35;7.07;;;2.83;;
74620;SDS011;64861;47.546;19.254;2023-05-07T10:04:01;5.93;;;2.78;;
74620;SDS011;64861;47.546;19.254;2023-05-07T10:06:33;7.10;;;3.20;;
74620;SDS011;64861;47.546;19.254;2023-05-07T10:09:00;9.95;;;2.85;;
74620;SDS011;64861;47.546;19.254;2023-05-07T10:11:27;8.52;;;2.90;;
74620;SDS011;64861;47.546;19.254;2023-05-07T10:13:53;7.72;;;3.20;;
74620;SDS011;64861;47.546;19.254;2023-05-07T10:16:20;6.93;;;2.60;;
74620;SDS011;64861;47.546;19.254;2023-05-07T10:18:46;6.80;;;2.38;;
74620;SDS011;64861;47.546;19.254;2023-05-07T10:21:16;7.20;;;3.20;;
74620;SDS011;64861;47.546;19.254;2023-05-07T10:23:47;6.68;;;2.90;;
74620;SDS011;64861;47.546;19.254;2023-05-07T10:26:14;6.43;;;2.67;;
74620;SDS011;64861;47.546;19.254;2023-05-07T10:28:43;7.07;;;2.78;;
74620;SDS011;64861;47.546;19.254;2023-05-07T10:34:15;6.57;;;2.67;;
74620;SDS011;64861;47.546;19.254;2023-05-07T10:36:46;4.25;;;2.40;;
74620;SDS011;64861;47.546;19.254;2023-05-07T10:39:13;6.88;;;2.88;;
74620;SDS011;64861;47.546;19.254;2023-05-07T10:41:39;9.07;;;2.88;;
74620;SDS011;64861;47.546;19.254;2023-05-07T10:44:04;6.20;;;2.80;;
74620;SDS011;64861;47.546;19.254;2023-05-07T10:46:30;6.35;;;2.92;;
74620;SDS011;64861;47.546;19.254;2023-05-07T10:51:29;6.72;;;2.60;;
74620;SDS011;64861;47.546;19.254;2023-05-07T10:56:43;6.95;;;2.67;;
74620;SDS011;64861;47.546;19.254;2023-05-07T11:01:55;6.60;;;2.70;;
74620;SDS011;64861;47.546;19.254;2023-05-07T11:04:22;5.20;;;2.67;;
74620;SDS011;64861;47.546;19.254;2023-05-07T11:15:06;4.97;;;2.50;;
74620;SDS011;64861;47.546;19.254;2023-05-07T11:17:33;6.63;;;2.55;;
74620;SDS011;64861;47.546;19.254;2023-05-07T11:20:00;4.38;;;2.20;;
74620;SDS011;64861;47.546;19.254;2023-05-07T11:25:04;5.72;;;2.70;;
74620;SDS011;64861;47.546;19.254;2023-05-07T11:27:31;4.60;;;2.40;;
74620;SDS011;64861;47.546;19.254;2023-05-07T11:29:57;4.47;;;2.30;;
74620;SDS011;64861;47.546;19.254;2023-05-07T11:32:23;5.55;;;2.53;;
74620;SDS011;64861;47.546;19.254;2023-05-07T11:34:57;5.43;;;2.53;;
74620;SDS011;64861;47.546;19.254;2023-05-07T11:37:24;5.57;;;2.65;;
74620;SDS011;64861;47.546;19.254;2023-05-07T11:40:01;5.90;;;2.70;;
74620;SDS011;64861;47.546;19.254;2023-05-07T11:42:32;5.00;;;2.42;;
74620;SDS011;64861;47.546;19.254;2023-05-07T11:45:02;4.88;;;2.20;;
74620;SDS011;64861;47.546;19.254;2023-05-07T11:47:32;5.07;;;2.33;;
74620;SDS011;64861;47.546;19.254;2023-05-07T11:50:02;5.53;;;2.30;;
74620;SDS011;64861;47.546;19.254;2023-05-07T11:52:29;5.63;;;2.55;;
74620;SDS011;64861;47.546;19.254;2023-05-07T11:54:56;5.85;;;2.28;;
74620;SDS011;64861;47.546;19.254;2023-05-07T11:57:23;4.75;;;2.40;;
74620;SDS011;64861;47.546;19.254;2023-05-07T11:59:56;6.28;;;2.42;;
74620;SDS011;64861;47.546;19.254;2023-05-07T12:02:23;4.57;;;2.25;;
74620;SDS011;64861;47.546;19.254;2023-05-07T12:04:50;4.40;;;2.45;;
74620;SDS011;64861;47.546;19.254;2023-05-07T12:07:16;5.25;;;2.35;;
74620;SDS011;64861;47.546;19.254;2023-05-07T12:09:43;5.13;;;2.33;;
74620;SDS011;64861;47.546;19.254;2023-05-07T12:12:09;4.68;;;2.30;;
74620;SDS011;64861;47.546;19.254;2023-05-07T12:14:41;4.75;;;2.35;;
74620;SDS011;64861;47.546;19.254;2023-05-07T12:17:08;4.32;;;2.25;;
74620;SDS011;64861;47.546;19.254;2023-05-07T12:19:34;7.50;;;2.70;;
74620;SDS011;64861;47.546;19.254;2023-05-07T12:22:01;5.45;;;2.33;;
74620;SDS011;64861;47.546;19.254;2023-05-07T12:24:28;5.93;;;2.72;;
74620;SDS011;64861;47.546;19.254;2023-05-07T12:26:53;5.72;;;2.70;;
74620;SDS011;64861;47.546;19.254;2023-05-07T12:29:22;4.25;;;2.20;;
74620;SDS011;64861;47.546;19.254;2023-05-07T12:31:48;5.25;;;2.30;;
74620;SDS011;64861;47.546;19.254;2023-05-07T12:34:15;3.65;;;1.98;;
74620;SDS011;64861;47.546;19.254;2023-05-07T12:36:40;5.65;;;2.60;;
74620;SDS011;64861;47.546;19.254;2023-05-07T12:39:06;5.47;;;1.90;;
74620;SDS011;64861;47.546;19.254;2023-05-07T12:41:54;6.18;;;2.47;;
74620;SDS011;64861;47.546;19.254;2023-05-07T12:44:29;4.07;;;2.05;;
74620;SDS011;64861;47.546;19.254;2023-05-07T12:46:58;5.17;;;2.60;;
74620;SDS011;64861;47.546;19.254;2023-05-07T12:49:23;4.20;;;2.20;;
74620;SDS011;64861;47.546;19.254;2023-05-07T12:51:50;4.93;;;2.33;;
74620;SDS011;64861;47.546;19.254;2023-05-07T12:54:30;3.60;;;2.00;;
74620;SDS011;64861;47.546;19.254;2023-05-07T12:57:01;4.50;;;2.20;;
74620;SDS011;64861;47.546;19.254;2023-05-07T12:59:37;4.43;;;2.40;;
74620;SDS011;64861;47.546;19.254;2023-05-07T13:02:06;4.78;;;2.20;;
74620;SDS011;64861;47.546;19.254;2023-05-07T13:04:33;4.30;;;2.00;;
74620;SDS011;64861;47.546;19.254;2023-05-07T13:06:58;3.22;;;1.83;;
74620;SDS011;64861;47.546;19.254;2023-05-07T13:09:24;3.97;;;2.03;;
74620;SDS011;64861;47.546;19.254;2023-05-07T13:11:50;6.47;;;2.50;;
74620;SDS011;64861;47.546;19.254;2023-05-07T13:14:16;4.10;;;2.30;;
74620;SDS011;64861;47.546;19.254;2023-05-07T13:16:41;4.15;;;1.98;;
74620;SDS011;64861;47.546;19.254;2023-05-07T13:19:07;4.38;;;2.45;;
74620;SDS011;64861;47.546;19.254;2023-05-07T13:21:32;3.30;;;1.65;;
74620;SDS011;64861;47.546;19.254;2023-05-07T13:23:58;3.92;;;1.92;;
74620;SDS011;64861;47.546;19.254;2023-05-07T13:26:24;4.68;;;2.15;;
74620;SDS011;64861;47.546;19.254;2023-05-07T13:28:50;4.10;;;2.05;;
74620;SDS011;64861;47.546;19.254;2023-05-07T13:31:16;5.55;;;2.55;;
74620;SDS011;64861;47.546;19.254;2023-05-07T13:33:42;4.65;;;2.17;;
74620;SDS011;64861;47.546;19.254;2023-05-07T13:36:08;4.13;;;2.17;;
74620;SDS011;64861;47.546;19.254;2023-05-07T13:38:34;5.20;;;2.38;;
74620;SDS011;64861;47.546;19.254;2023-05-07T13:41:00;4.00;;;2.20;;
74620;SDS011;64861;47.546;19.254;2023-05-07T13:43:25;4.22;;;2.10;;
74620;SDS011;64861;47.546;19.254;2023-05-07T13:45:51;4.32;;;2.30;;
74620;SDS011;64861;47.546;19.254;2023-05-07T13:48:16;4.15;;;2.13;;
74620;SDS011;64861;47.546;19.254;2023-05-07T13:50:42;4.88;;;2.20;;
74620;SDS011;64861;47.546;19.254;2023-05-07T13:53:07;4.13;;;2.00;;
74620;SDS011;64861;47.546;19.254;2023-05-07T13:55:33;4.05;;;2.25;;
74620;SDS011;64861;47.546;19.254;2023-05-07T13:57:59;4.00;;;2.00;;
74620;SDS011;64861;47.546;19.254;2023-05-07T14:00:26;3.72;;;2.10;;
74620;SDS011;64861;47.546;19.254;2023-05-07T14:02:53;3.85;;;2.00;;
74620;SDS011;64861;47.546;19.254;2023-05-07T14:05:20;5.22;;;2.00;;
74620;SDS011;64861;47.546;19.254;2023-05-07T14:07:48;5.43;;;2.17;;
74620;SDS011;64861;47.546;19.254;2023-05-07T14:10:16;4.03;;;2.10;;
74620;SDS011;64861;47.546;19.254;2023-05-07T14:12:42;4.47;;;2.30;;
74620;SDS011;64861;47.546;19.254;2023-05-07T14:15:08;3.70;;;1.98;;
74620;SDS011;64861;47.546;19.254;2023-05-07T14:17:34;4.05;;;2.22;;
74620;SDS011;64861;47.546;19.254;2023-05-07T14:20:00;3.67;;;2.08;;
74620;SDS011;64861;47.546;19.254;2023-05-07T14:22:25;4.07;;;2.10;;
74620;SDS011;64861;47.546;19.254;2023-05-07T14:24:51;3.45;;;2.00;;
74620;SDS011;64861;47.546;19.254;2023-05-07T14:27:16;4.35;;;2.22;;
74620;SDS011;64861;47.546;19.254;2023-05-07T14:29:42;4.22;;;2.25;;
74620;SDS011;64861;47.546;19.254;2023-05-07T14:32:08;4.70;;;2.10;;
74620;SDS011;64861;47.546;19.254;2023-05-07T14:34:34;7.75;;;2.20;;
74620;SDS011;64861;47.546;19.254;2023-05-07T14:36:59;4.13;;;1.90;;
74620;SDS011;64861;47.546;19.254;2023-05-07T14:39:25;6.20;;;1.85;;
74620;SDS011;64861;47.546;19.254;2023-05-07T14:41:51;5.43;;;2.38;;
74620;SDS011;64861;47.546;19.254;2023-05-07T14:44:16;4.32;;;2.10;;
74620;SDS011;64861;47.546;19.254;2023-05-07T14:46:42;4.82;;;2.03;;
74620;SDS011;64861;47.546;19.254;2023-05-07T14:49:08;5.68;;;2.00;;